Aérodrome :
LOGIN :

S'inscrire | Disclaimer

   EN    FR    IT 

 










Légende :    VFR   VFR Marginal   IFR   IFR Intensif   IFR Très Intensif
Visi : 
Plafond : 
>= 8 km
>= 3000ft
5 à 8 km
1000 à 3000 ft
1500m à 5 km
500 à 1000 ft
800 à 1500m
200 à 500 ft
< 800m
< 200 ft
Symboles :   Orages  Brouillard  Fortes neiges  Fortes précipitations  Vent > 20 kt
SIGMETs :   Divers  Orages  Givrage  Turbulence  Onde Orograph.  Cendres Volcan.







- Altitude de l'aérodrome : 1302 ft
- Code IATA : GNB
- Voir les cartes d'approche


LFLS - Grenoble / St. Geoirs

DERNIER METAR :
  • 162200Z AUTO 36012KT 340V070 9999 FEW011 SCT039 BKN090 02/M00 Q1021

METARs EXPIRÉS :
  • 162130Z AUTO 35013KT 9999 -RA FEW011 SCT032 BKN046 02/M00 Q1021
  • 162100Z AUTO 35014KT 330V050 9999 -RA BKN009 BKN013 BKN019 01/M00 Q1021
  • 162030Z AUTO 35008KT 330V040 9999 -SNRA BKN009 BKN018 BKN030 02/00 Q1020
  • 162000Z AUTO 36009KT 320V060 9999 BKN009 BKN017 BKN025 02/00 Q1020 TEMPO 4000 -RASN
  • 161930Z AUTO 35010KT 330V070 9999 BKN008 OVC028 02/01 Q1020 TEMPO 4000 -RASN

TAF TAF LFLS
Valide du 16 à 15h jusqu'au 17 à 15h UTC


161400Z 1615/1715 35009KT 9999 BKN016
TEMPO 1615/1710 BKN009
PROB40
TEMPO 1615/1701 4000 -RASN
PROB30
TEMPO 1703/1710 4000 -SN
ATIS : +33 4 76 65 55 89
Pas de NOTAMs connus pour ce terrain.
1 SIGMET publié pour la FIR Marseille (LFMM) :
 
Turbulence forte
LFMM SIGMET 7 VALID 162000/162300 LFPW
LFMM MARSEILLE FIR/UIR SEV TURB FCST WI N4115 E00430 - N4200 E00430 - N4215 E00230 - N4330 E00245 - N4415 E00330 - N4415 E00515 - N4100 E00715 - N4115 E00430 SFC/FL050 STNR NC=



MET'MAP, la Météo Aéronautique d'un coup d'oeil ! - Copyright ORBIFLY Décembre 2007 - Disclaimer

ORBIFLY MET'MAP TEAM :

Programmation & Développement : Alexandra Zaïnal
Conception & Développement : Baudouin d'Aumeries
Co-Programmation & Développement : Marc-Olivier Méhu
Soutien technique & logistique : Manuel Goepfert

Contact : metmap@orbifly.com




SOURCES & CREDITS :

   NOAA